createdAt,value
2023-03-16T00:01:05.517Z,4.65
2023-03-16T00:03:35.417Z,4.47
2023-03-16T00:06:03.266Z,4.85
2023-03-16T00:08:31.116Z,4.75
2023-03-16T00:10:59.523Z,5.30
2023-03-16T00:13:27.533Z,5.18
2023-03-16T00:15:57.826Z,6.72
2023-03-16T00:18:28.187Z,7.40
2023-03-16T00:20:59.780Z,5.85
2023-03-16T00:23:28.153Z,6.78
2023-03-16T00:25:56.800Z,5.35
2023-03-16T00:28:24.789Z,6.57
2023-03-16T00:30:52.893Z,7.00
2023-03-16T00:33:20.831Z,6.80
2023-03-16T00:35:50.174Z,7.00
2023-03-16T00:38:21.773Z,7.43
2023-03-16T00:40:51.269Z,5.63
2023-03-16T00:43:19.079Z,6.60
2023-03-16T00:45:47.620Z,5.80
2023-03-16T00:48:16.499Z,6.35
2023-03-16T00:50:44.348Z,7.13
2023-03-16T00:53:13.140Z,5.63
2023-03-16T00:55:42.610Z,5.63
2023-03-16T00:58:14.872Z,5.68
2023-03-16T01:00:43.012Z,6.13
2023-03-16T01:03:10.862Z,4.68
2023-03-16T01:05:41.785Z,4.53
2023-03-16T01:08:10.209Z,5.60
2023-03-16T01:10:37.993Z,4.35
2023-03-16T01:13:07.574Z,4.72
2023-03-16T01:15:35.833Z,5.90
2023-03-16T01:18:03.688Z,6.13
2023-03-16T01:20:33.542Z,5.72
2023-03-16T01:23:02.282Z,5.38
2023-03-16T01:25:30.107Z,4.47
2023-03-16T01:27:58.081Z,4.70
2023-03-16T01:30:28.346Z,4.80
2023-03-16T01:32:56.406Z,4.60
2023-03-16T01:35:24.296Z,4.57
2023-03-16T01:37:52.142Z,6.28
2023-03-16T01:40:24.274Z,4.17
2023-03-16T01:43:05.545Z,5.22
2023-03-16T01:46:21.963Z,5.53
2023-03-16T01:49:06.300Z,4.03
2023-03-16T01:51:39.302Z,4.78
2023-03-16T01:54:10.708Z,4.45
2023-03-16T01:56:43.277Z,4.35
2023-03-16T01:59:17.295Z,5.70
2023-03-16T02:01:49.494Z,5.07
2023-03-16T02:04:33.849Z,4.03
2023-03-16T02:07:04.690Z,4.65
2023-03-16T02:09:33.154Z,3.63
2023-03-16T02:12:01.964Z,4.13
2023-03-16T02:14:31.708Z,3.83
2023-03-16T02:17:01.131Z,3.55
2023-03-16T02:19:43.238Z,4.47
2023-03-16T02:22:11.715Z,4.72
2023-03-16T02:24:39.719Z,3.70
2023-03-16T02:27:10.429Z,4.88
2023-03-16T02:30:09.810Z,5.13
2023-03-16T02:32:47.984Z,4.28
2023-03-16T02:35:15.903Z,4.00
2023-03-16T02:37:43.766Z,4.75
2023-03-16T02:40:22.408Z,6.72
2023-03-16T02:42:57.418Z,4.68
2023-03-16T02:45:33.410Z,4.55
2023-03-16T02:48:06.574Z,4.22
2023-03-16T02:50:34.506Z,3.50
2023-03-16T02:53:02.319Z,3.70
2023-03-16T02:55:30.345Z,3.75
2023-03-16T02:57:58.638Z,4.10
2023-03-16T03:00:30.038Z,5.22
2023-03-16T03:02:58.338Z,5.43
2023-03-16T03:05:26.230Z,4.28
2023-03-16T03:07:54.128Z,4.28
2023-03-16T03:10:22.170Z,4.95
2023-03-16T03:12:50.321Z,4.72
2023-03-16T03:15:19.368Z,4.82
2023-03-16T03:17:58.993Z,5.80
2023-03-16T03:20:29.754Z,4.07
2023-03-16T03:22:57.919Z,5.38
2023-03-16T03:25:25.986Z,4.40
2023-03-16T03:27:55.756Z,3.92
2023-03-16T03:30:26.432Z,3.58
2023-03-16T03:32:54.680Z,3.58
2023-03-16T03:35:24.349Z,4.65
2023-03-16T03:37:52.550Z,4.07
2023-03-16T03:40:21.517Z,3.55
2023-03-16T03:42:55.802Z,4.35
2023-03-16T03:45:24.830Z,4.30
2023-03-16T03:47:52.815Z,4.32
2023-03-16T03:50:22.254Z,3.72
2023-03-16T03:53:02.178Z,4.20
2023-03-16T03:55:33.090Z,3.67
2023-03-16T03:58:01.969Z,3.17
2023-03-16T04:00:30.276Z,3.95
2023-03-16T04:02:58.394Z,3.50
2023-03-16T04:05:34.004Z,3.53
2023-03-16T04:08:04.279Z,4.07
2023-03-16T04:10:32.546Z,4.43
2023-03-16T04:13:01.400Z,3.47
2023-03-16T04:15:33.959Z,3.35
2023-03-16T04:18:24.004Z,4.43
2023-03-16T04:20:53.174Z,4.13
2023-03-16T04:23:24.904Z,3.78
2023-03-16T04:25:54.841Z,4.65
2023-03-16T04:28:26.305Z,4.63
2023-03-16T04:30:54.994Z,3.60
2023-03-16T04:33:32.282Z,4.63
2023-03-16T04:36:02.429Z,4.05
2023-03-16T04:38:33.741Z,4.82
2023-03-16T04:41:03.068Z,5.77
2023-03-16T04:43:35.660Z,3.92
2023-03-16T04:46:16.541Z,4.32
2023-03-16T04:48:44.714Z,3.95
2023-03-16T04:51:12.643Z,4.55
2023-03-16T04:53:47.231Z,4.75
2023-03-16T04:56:23.852Z,4.43
2023-03-16T04:58:57.099Z,4.60
2023-03-16T05:01:28.110Z,4.25
2023-03-16T05:03:59.829Z,4.10
2023-03-16T05:06:29.047Z,4.07
2023-03-16T05:09:01.911Z,3.55
2023-03-16T05:11:30.843Z,3.83
2023-03-16T05:14:02.375Z,4.10
2023-03-16T05:16:32.738Z,5.97
2023-03-16T05:19:01.290Z,6.00
2023-03-16T05:21:34.148Z,5.07
2023-03-16T05:24:07.416Z,6.35
2023-03-16T05:26:35.692Z,3.97
2023-03-16T05:29:06.038Z,4.40
2023-03-16T05:31:34.216Z,5.30
2023-03-16T05:34:05.400Z,5.82
2023-03-16T05:36:35.843Z,5.30
2023-03-16T05:39:10.313Z,4.70
2023-03-16T05:41:42.946Z,6.13
2023-03-16T05:44:16.885Z,5.07
2023-03-16T05:47:23.108Z,6.15
2023-03-16T05:49:55.991Z,4.78
2023-03-16T05:52:30.875Z,5.70
2023-03-16T05:55:03.479Z,5.50
2023-03-16T05:57:31.370Z,5.82
2023-03-16T06:00:01.820Z,4.85
2023-03-16T06:02:40.208Z,5.55
2023-03-16T06:05:08.790Z,4.82
2023-03-16T06:07:40.028Z,5.47
2023-03-16T06:10:11.588Z,5.90
2023-03-16T06:12:39.824Z,8.20
2023-03-16T06:15:09.239Z,6.32
2023-03-16T06:17:38.669Z,6.68
2023-03-16T06:20:10.443Z,5.75
2023-03-16T06:22:41.196Z,5.78
2023-03-16T06:25:12.667Z,6.93
2023-03-16T06:27:42.646Z,5.85
2023-03-16T06:30:15.141Z,4.60
2023-03-16T06:32:44.383Z,6.15
2023-03-16T06:35:13.259Z,7.15
2023-03-16T06:37:46.347Z,7.57
2023-03-16T06:40:31.283Z,6.47
2023-03-16T06:42:59.148Z,4.90
2023-03-16T06:45:27.252Z,6.60
2023-03-16T06:47:56.881Z,5.05
2023-03-16T06:50:24.768Z,6.65
2023-03-16T06:52:52.619Z,5.32
2023-03-16T06:55:20.981Z,6.80
2023-03-16T06:57:51.836Z,6.18
2023-03-16T07:00:20.604Z,5.20
2023-03-16T07:02:48.409Z,5.22
2023-03-16T07:05:16.506Z,5.60
2023-03-16T07:07:45.502Z,8.38
2023-03-16T07:10:15.839Z,5.30
2023-03-16T07:12:44.171Z,7.53
2023-03-16T07:15:14.333Z,5.28
2023-03-16T07:17:42.528Z,7.47
2023-03-16T07:20:12.799Z,5.90
2023-03-16T07:22:41.662Z,6.13
2023-03-16T07:25:12.383Z,5.32
2023-03-16T07:30:20.575Z,5.72
2023-03-16T07:32:50.548Z,6.20
2023-03-16T07:35:21.680Z,6.60
2023-03-16T07:37:49.816Z,6.63
2023-03-16T07:40:18.248Z,5.47
2023-03-16T07:42:46.068Z,5.05
2023-03-16T07:45:28.689Z,5.97
2023-03-16T07:47:58.891Z,4.75
2023-03-16T07:50:38.361Z,4.93
2023-03-16T07:53:06.652Z,6.22
2023-03-16T07:55:39.057Z,5.72
2023-03-16T07:58:10.363Z,5.97
2023-03-16T08:00:42.488Z,5.50
2023-03-16T08:03:10.597Z,5.50
2023-03-16T08:05:39.317Z,7.13
2023-03-16T08:08:12.834Z,6.95
2023-03-16T08:10:41.986Z,6.20
2023-03-16T08:13:22.491Z,6.47
2023-03-16T08:15:58.412Z,6.20
2023-03-16T08:18:37.990Z,6.60
2023-03-16T08:21:07.065Z,6.82
2023-03-16T08:23:36.088Z,6.85
2023-03-16T08:26:08.698Z,6.82
2023-03-16T08:28:37.286Z,6.53
2023-03-16T08:31:12.226Z,6.70
2023-03-16T08:33:52.458Z,5.97
2023-03-16T08:36:24.234Z,5.93
2023-03-16T08:39:06.501Z,6.00
2023-03-16T08:41:40.684Z,6.00
2023-03-16T08:44:15.621Z,7.20
2023-03-16T08:46:45.007Z,6.90
2023-03-16T08:49:14.399Z,7.72
2023-03-16T08:51:44.880Z,7.32
2023-03-16T08:54:12.795Z,5.55
2023-03-16T08:56:40.632Z,7.88
2023-03-16T08:59:16.829Z,5.82
2023-03-16T09:01:53.240Z,6.10
2023-03-16T09:04:22.029Z,6.93
2023-03-16T09:07:05.849Z,5.60
2023-03-16T09:09:36.490Z,7.63
2023-03-16T09:12:05.892Z,6.28
2023-03-16T09:14:34.358Z,7.30
2023-03-16T09:17:04.258Z,6.47
2023-03-16T09:19:50.075Z,7.88
2023-03-16T09:22:19.623Z,6.30
2023-03-16T09:24:47.589Z,5.82
2023-03-16T09:27:16.447Z,6.57
2023-03-16T09:29:45.370Z,6.80
2023-03-16T09:32:15.387Z,5.78
2023-03-16T09:34:43.320Z,6.53
2023-03-16T09:37:11.438Z,6.70
2023-03-16T09:39:39.594Z,6.65
2023-03-16T09:42:20.832Z,5.90
2023-03-16T09:45:00.412Z,5.68
2023-03-16T09:47:34.413Z,6.43
2023-03-16T09:50:06.337Z,5.45
2023-03-16T09:52:42.313Z,6.60
2023-03-16T09:56:05.419Z,6.82
2023-03-16T09:59:47.069Z,5.50
2023-03-16T10:03:28.329Z,7.40
2023-03-16T10:06:19.259Z,5.40
2023-03-16T10:11:35.661Z,6.00
2023-03-16T10:14:34.743Z,5.75
2023-03-16T10:17:17.858Z,5.68
2023-03-16T10:22:26.404Z,5.60
2023-03-16T10:25:03.562Z,5.78
2023-03-16T10:27:34.474Z,5.43
2023-03-16T10:30:04.303Z,5.15
2023-03-16T10:32:35.675Z,5.63
2023-03-16T10:35:08.196Z,5.53
2023-03-16T10:37:39.174Z,5.05
2023-03-16T10:40:12.368Z,5.30
2023-03-16T10:42:41.591Z,5.15
2023-03-16T10:45:24.265Z,5.30
2023-03-16T10:47:52.402Z,5.22
2023-03-16T10:50:25.146Z,5.68
2023-03-16T10:52:58.244Z,6.30
2023-03-16T10:55:31.092Z,6.15
2023-03-16T10:57:59.822Z,6.28
2023-03-16T11:00:29.956Z,5.97
2023-03-16T11:03:00.009Z,4.93
2023-03-16T11:05:31.770Z,4.10
2023-03-16T11:08:03.729Z,4.93
2023-03-16T11:10:38.097Z,4.55
2023-03-16T11:13:14.655Z,6.07
2023-03-16T11:15:48.785Z,4.88
2023-03-16T11:18:33.405Z,5.05
2023-03-16T11:21:07.836Z,4.57
2023-03-16T11:23:42.242Z,4.47
2023-03-16T11:26:19.711Z,4.68
2023-03-16T11:28:51.673Z,4.60
2023-03-16T11:31:27.525Z,5.93
2023-03-16T11:33:57.501Z,5.28
2023-03-16T11:36:37.615Z,4.35
2023-03-16T11:39:15.847Z,4.13
2023-03-16T11:41:54.639Z,4.65
2023-03-16T11:44:32.892Z,4.55
2023-03-16T11:47:09.107Z,4.75
2023-03-16T11:49:57.091Z,4.82
2023-03-16T11:52:35.692Z,4.60
2023-03-16T11:55:22.528Z,4.47
2023-03-16T11:57:58.516Z,3.85
2023-03-16T12:00:39.449Z,3.97
2023-03-16T12:03:36.915Z,5.13
2023-03-16T12:06:23.561Z,3.10
2023-03-16T12:09:10.505Z,3.83
2023-03-16T12:11:45.545Z,3.80
2023-03-16T12:14:21.190Z,4.20
2023-03-16T12:16:55.920Z,4.45
2023-03-16T12:19:31.727Z,4.00
2023-03-16T12:22:08.046Z,3.72
2023-03-16T12:24:42.431Z,4.15
2023-03-16T12:27:17.848Z,4.60
2023-03-16T12:30:06.244Z,4.60
2023-03-16T12:32:46.659Z,3.55
2023-03-16T12:35:29.518Z,4.88
2023-03-16T12:38:06.232Z,4.35
2023-03-16T12:40:41.888Z,3.45
2023-03-16T12:43:30.182Z,5.32
2023-03-16T12:46:02.183Z,3.55
2023-03-16T12:48:33.897Z,3.80
2023-03-16T12:51:03.963Z,3.85
2023-03-16T12:53:55.236Z,4.22
2023-03-16T12:56:30.109Z,4.43
2023-03-16T12:59:01.248Z,2.95
2023-03-16T13:01:31.244Z,3.88
2023-03-16T13:04:04.606Z,4.25
2023-03-16T13:06:36.442Z,3.80
2023-03-16T13:09:07.232Z,4.95
2023-03-16T13:11:45.676Z,5.25
2023-03-16T13:14:30.906Z,3.92
2023-03-16T13:17:22.947Z,4.25
2023-03-16T13:20:01.595Z,5.75
2023-03-16T13:22:31.166Z,3.42
2023-03-16T13:25:15.507Z,3.72
2023-03-16T13:27:47.008Z,2.63
2023-03-16T13:30:21.397Z,2.72
2023-03-16T13:32:55.546Z,2.88
2023-03-16T13:35:28.165Z,3.60
2023-03-16T13:37:56.174Z,3.78
2023-03-16T13:40:27.467Z,2.42
2023-03-16T13:42:58.108Z,2.47
2023-03-16T13:45:32.681Z,3.53
2023-03-16T13:48:02.136Z,3.15
2023-03-16T13:50:33.584Z,2.97
2023-03-16T13:53:04.675Z,2.72
2023-03-16T13:55:34.657Z,3.95
2023-03-16T13:58:03.925Z,2.63
2023-03-16T14:00:36.985Z,2.03
2023-03-16T14:03:16.129Z,3.30
2023-03-16T14:05:44.441Z,2.42
2023-03-16T14:08:17.887Z,3.10
2023-03-16T14:10:46.709Z,3.45
2023-03-16T14:13:27.565Z,2.58
2023-03-16T14:15:59.726Z,3.40
2023-03-16T14:18:37.254Z,2.97
2023-03-16T14:21:09.230Z,2.75
2023-03-16T14:23:40.472Z,2.33
2023-03-16T14:26:13.920Z,2.38
2023-03-16T14:28:43.521Z,3.72
2023-03-16T14:31:14.280Z,3.10
2023-03-16T14:33:46.006Z,2.78
2023-03-16T14:36:15.956Z,3.42
2023-03-16T14:38:45.096Z,2.42
2023-03-16T14:41:24.110Z,2.63
2023-03-16T14:43:55.514Z,3.33
2023-03-16T14:46:29.582Z,3.15
2023-03-16T14:49:03.629Z,2.53
2023-03-16T14:51:32.708Z,2.63
2023-03-16T14:54:00.599Z,4.45
2023-03-16T14:56:35.104Z,2.97
2023-03-16T14:59:02.902Z,2.97
2023-03-16T15:01:32.345Z,2.30
2023-03-16T15:04:00.400Z,3.05
2023-03-16T15:06:31.135Z,2.05
2023-03-16T15:08:59.181Z,2.20
2023-03-16T15:11:31.712Z,3.15
2023-03-16T15:14:14.767Z,3.83
2023-03-16T15:16:46.675Z,2.58
2023-03-16T15:19:14.711Z,3.03
2023-03-16T15:21:43.868Z,3.17
2023-03-16T15:24:12.920Z,3.88
2023-03-16T15:26:40.797Z,3.00
2023-03-16T15:29:12.777Z,3.13
2023-03-16T15:31:41.130Z,3.90
2023-03-16T15:34:10.463Z,2.83
2023-03-16T15:36:38.720Z,3.45
2023-03-16T15:39:08.385Z,3.03
2023-03-16T15:41:47.055Z,2.92
2023-03-16T15:44:16.007Z,3.05
2023-03-16T15:46:43.897Z,3.10
2023-03-16T15:49:13.871Z,4.78
2023-03-16T15:51:41.964Z,3.17
2023-03-16T15:54:12.161Z,3.67
2023-03-16T15:56:53.308Z,3.95
2023-03-16T15:59:24.099Z,3.40
2023-03-16T16:01:52.761Z,3.05
2023-03-16T16:04:24.264Z,3.45
2023-03-16T16:06:55.060Z,3.20
2023-03-16T16:09:23.377Z,3.40
2023-03-16T16:11:51.530Z,3.60
2023-03-16T16:14:23.833Z,3.15
2023-03-16T16:16:51.905Z,3.42
2023-03-16T16:19:19.800Z,4.00
2023-03-16T16:21:49.085Z,3.22
2023-03-16T16:24:18.206Z,2.80
2023-03-16T16:26:53.264Z,3.78
2023-03-16T16:29:23.921Z,3.58
2023-03-16T16:31:52.666Z,3.65
2023-03-16T16:34:24.242Z,3.25
2023-03-16T16:36:53.967Z,3.63
2023-03-16T16:39:23.315Z,4.07
2023-03-16T16:41:54.493Z,3.72
2023-03-16T16:44:24.635Z,3.03
2023-03-16T16:46:53.661Z,3.58
2023-03-16T16:49:24.755Z,2.40
2023-03-16T16:51:54.974Z,2.92
2023-03-16T16:54:24.077Z,3.83
2023-03-16T16:56:54.521Z,3.28
2023-03-16T16:59:24.924Z,3.60
2023-03-16T17:01:53.991Z,4.05
2023-03-16T17:04:24.636Z,3.45
2023-03-16T17:06:58.773Z,3.70
2023-03-16T17:09:28.661Z,3.38
2023-03-16T17:11:59.499Z,3.92
2023-03-16T17:14:28.726Z,3.22
2023-03-16T17:16:58.054Z,4.00
2023-03-16T17:19:28.188Z,3.20
2023-03-16T17:21:59.173Z,3.90
2023-03-16T17:24:28.633Z,3.15
2023-03-16T17:26:58.705Z,4.78
2023-03-16T17:29:29.909Z,4.50
2023-03-16T17:31:57.954Z,4.75
2023-03-16T17:34:28.137Z,4.13
2023-03-16T17:36:57.693Z,4.00
2023-03-16T17:39:27.463Z,4.15
2023-03-16T17:41:58.907Z,4.18
2023-03-16T17:44:27.887Z,3.55
2023-03-16T17:46:55.657Z,4.28
2023-03-16T17:49:28.175Z,3.97
2023-03-16T17:51:57.552Z,4.50
2023-03-16T17:54:25.446Z,4.63
2023-03-16T17:56:54.188Z,4.20
2023-03-16T17:59:23.392Z,4.28
2023-03-16T18:01:52.196Z,3.70
2023-03-16T18:04:22.263Z,3.85
2023-03-16T18:06:51.140Z,3.72
2023-03-16T18:09:21.458Z,4.35
2023-03-16T18:11:51.597Z,4.03
2023-03-16T18:14:26.362Z,3.45
2023-03-16T18:16:55.230Z,5.40
2023-03-16T18:19:25.304Z,3.85
2023-03-16T18:21:55.645Z,3.50
2023-03-16T18:24:26.698Z,3.88
2023-03-16T18:26:55.298Z,5.43
2023-03-16T18:29:24.029Z,4.10
2023-03-16T18:31:55.068Z,4.80
2023-03-16T18:34:25.218Z,3.40
2023-03-16T18:36:54.943Z,4.80
2023-03-16T18:39:24.344Z,4.13
2023-03-16T18:41:52.827Z,3.80
2023-03-16T18:44:22.453Z,4.07
2023-03-16T18:46:51.800Z,2.97
2023-03-16T18:49:22.831Z,3.60
2023-03-16T18:51:53.305Z,2.70
2023-03-16T18:54:23.421Z,3.58
2023-03-16T18:56:53.777Z,3.53
2023-03-16T18:59:21.689Z,3.25
2023-03-16T19:01:49.543Z,4.10
2023-03-16T19:04:22.539Z,3.80
2023-03-16T19:06:52.067Z,3.65
2023-03-16T19:09:22.210Z,3.15
2023-03-16T19:11:50.576Z,2.42
2023-03-16T19:14:22.323Z,3.38
2023-03-16T19:16:50.732Z,3.92
2023-03-16T19:19:21.320Z,3.63
2023-03-16T19:21:50.501Z,3.22
2023-03-16T19:24:24.103Z,3.58
2023-03-16T19:26:52.633Z,2.83
2023-03-16T19:29:28.375Z,3.65
2023-03-16T19:31:57.919Z,4.60
2023-03-16T19:34:26.536Z,3.28
2023-03-16T19:36:54.438Z,3.20
2023-03-16T19:39:22.325Z,3.72
2023-03-16T19:41:55.797Z,3.97
2023-03-16T19:44:27.533Z,4.40
2023-03-16T19:46:56.152Z,3.30
2023-03-16T19:49:25.906Z,3.25
2023-03-16T19:51:55.845Z,4.15
2023-03-16T19:54:25.048Z,3.83
2023-03-16T19:56:54.283Z,4.03
2023-03-16T19:59:30.285Z,4.93
2023-03-16T20:09:53.851Z,3.90
2023-03-16T20:12:23.764Z,3.47
2023-03-16T20:14:52.455Z,3.40
2023-03-16T20:17:23.409Z,4.05
2023-03-16T20:19:53.035Z,4.05
2023-03-16T20:22:23.461Z,3.90
2023-03-16T20:24:54.404Z,4.50
2023-03-16T20:27:24.188Z,4.75
2023-03-16T20:29:52.899Z,4.13
2023-03-16T20:32:22.932Z,5.07
2023-03-16T20:34:51.500Z,3.83
2023-03-16T20:37:24.799Z,4.65
2023-03-16T20:39:54.975Z,4.63
2023-03-16T20:42:26.283Z,4.13
2023-03-16T20:44:54.135Z,4.57
2023-03-16T20:47:23.884Z,4.55
2023-03-16T20:49:57.574Z,6.13
2023-03-16T20:52:30.718Z,4.00
2023-03-16T20:55:00.264Z,4.97
2023-03-16T20:57:30.224Z,5.35
2023-03-16T20:59:59.907Z,4.28
2023-03-16T21:02:30.102Z,3.88
2023-03-16T21:04:59.790Z,5.05
2023-03-16T21:07:27.769Z,4.55
2023-03-16T21:09:55.672Z,3.85
2023-03-16T21:12:28.627Z,4.13
2023-03-16T21:17:34.409Z,5.03
2023-03-16T21:20:02.296Z,4.43
2023-03-16T21:22:31.596Z,3.50
2023-03-16T21:24:59.942Z,3.90
2023-03-16T21:27:31.249Z,4.45
2023-03-16T21:30:01.645Z,4.80
2023-03-16T21:32:30.872Z,4.10
2023-03-16T21:35:01.958Z,6.80
2023-03-16T21:37:30.273Z,5.20
2023-03-16T21:40:00.168Z,4.93
2023-03-16T21:42:30.379Z,4.10
2023-03-16T21:44:58.111Z,4.00
2023-03-16T21:47:29.631Z,5.00
2023-03-16T21:49:59.370Z,4.47
2023-03-16T21:52:30.205Z,4.03
2023-03-16T21:54:59.864Z,4.55
2023-03-16T21:57:27.623Z,5.53
2023-03-16T21:59:56.866Z,4.32
2023-03-16T22:02:27.864Z,3.75
2023-03-16T22:04:57.595Z,3.13
2023-03-16T22:07:26.577Z,4.38
2023-03-16T22:09:54.447Z,4.53
2023-03-16T22:12:22.232Z,4.85
2023-03-16T22:14:49.982Z,4.18
2023-03-16T22:17:22.762Z,3.53
2023-03-16T22:19:50.677Z,4.40
2023-03-16T22:22:18.745Z,4.82
2023-03-16T22:24:47.448Z,4.50
2023-03-16T22:27:18.734Z,3.50
2023-03-16T22:29:46.648Z,3.88
2023-03-16T22:32:22.460Z,3.38
2023-03-16T22:34:53.358Z,3.47
2023-03-16T22:37:24.124Z,4.60
2023-03-16T22:39:53.076Z,3.53
2023-03-16T22:42:27.469Z,3.10
2023-03-16T22:44:55.622Z,4.15
2023-03-16T22:47:27.146Z,3.40
2023-03-16T22:49:55.605Z,4.53
2023-03-16T22:52:28.146Z,4.40
2023-03-16T22:54:56.811Z,3.17
2023-03-16T22:57:24.619Z,3.65
2023-03-16T22:59:53.116Z,2.95
2023-03-16T23:02:26.133Z,3.65
2023-03-16T23:04:54.030Z,4.22
2023-03-16T23:07:21.819Z,5.07
2023-03-16T23:09:49.636Z,4.20
2023-03-16T23:12:22.068Z,4.53
2023-03-16T23:14:49.879Z,3.95
2023-03-16T23:17:19.055Z,4.38
2023-03-16T23:19:48.646Z,4.13
2023-03-16T23:22:16.965Z,3.28
2023-03-16T23:24:44.849Z,3.72
2023-03-16T23:27:18.916Z,3.47
2023-03-16T23:29:47.162Z,3.22
2023-03-16T23:32:16.818Z,3.67
2023-03-16T23:34:44.626Z,3.50
2023-03-16T23:37:13.877Z,4.32
2023-03-16T23:39:41.672Z,3.50
2023-03-16T23:42:10.080Z,3.88
2023-03-16T23:44:37.952Z,3.28
2023-03-16T23:47:05.962Z,4.63
2023-03-16T23:49:37.950Z,3.80
2023-03-16T23:52:06.338Z,3.90
2023-03-16T23:54:35.467Z,3.67
2023-03-16T23:57:03.454Z,3.50
2023-03-16T23:59:31.234Z,3.50
